Time;durP1;ratioP1;P1;durP2;ratioP2;P2;SDS_P1;SDS_P2;PMS_P1;PMS_P2;Temp;Humidity;BMP_temperature;BMP_pressure;BME280_temperature;BME280_humidity;BME280_pressure;Samples;Min_cycle;Max_cycle;Signal;HPM_P1;HPM_P2
2022/02/13 00:01:31;;;;;;;13.77;8.60;;;0.90;99.90;;;;;;5072085;28;20203;-72
2022/02/13 00:04:18;;;;;;;10.05;7.85;;;1.00;99.90;;;;;;5078351;28;20224;-70
2022/02/13 00:07:04;;;;;;;16.52;8.88;;;1.00;99.90;;;;;;5069057;28;20224;-71
2022/02/13 00:09:50;;;;;;;14.57;8.18;;;1.00;99.90;;;;;;5070518;28;20200;-71
2022/02/13 00:12:36;;;;;;;13.32;8.50;;;1.00;99.90;;;;;;5059952;28;20298;-71
2022/02/13 00:15:22;;;;;;;12.20;8.45;;;1.00;99.90;;;;;;5072092;28;20739;-70
2022/02/13 00:18:07;;;;;;;15.40;8.27;;;0.90;99.90;;;;;;5073542;28;20685;-70
2022/02/13 00:20:54;;;;;;;17.88;7.90;;;0.80;99.90;;;;;;5068065;28;20689;-70
2022/02/13 00:23:40;;;;;;;10.00;6.65;;;0.70;99.90;;;;;;5066878;28;20218;-71
2022/02/13 00:26:26;;;;;;;11.32;7.70;;;0.70;99.90;;;;;;5072565;28;20219;-71
2022/02/13 00:29:11;;;;;;;10.73;7.40;;;0.60;99.90;;;;;;5070823;28;20747;-70
2022/02/13 00:31:57;;;;;;;11.88;7.22;;;0.60;99.90;;;;;;5068620;28;20200;-71
2022/02/13 00:34:44;;;;;;;13.13;7.00;;;0.60;99.90;;;;;;5076629;28;20583;-71
2022/02/13 00:37:31;;;;;;;14.57;7.72;;;0.70;99.90;;;;;;5072603;28;20200;-70
2022/02/13 00:40:18;;;;;;;11.15;7.55;;;0.80;99.90;;;;;;5071795;28;20258;-71
2022/02/13 00:43:04;;;;;;;11.25;6.72;;;0.90;99.90;;;;;;5068046;28;20208;-71
2022/02/13 00:45:49;;;;;;;11.30;7.65;;;0.90;99.90;;;;;;5072620;28;20203;-71
2022/02/13 00:48:35;;;;;;;11.52;7.53;;;0.90;99.90;;;;;;5066851;28;20271;-70
2022/02/13 00:51:21;;;;;;;8.75;6.35;;;0.90;99.90;;;;;;5070036;28;20216;-70
2022/02/13 00:54:08;;;;;;;9.80;6.50;;;0.90;99.90;;;;;;5073002;28;20240;-71
2022/02/13 00:56:54;;;;;;;12.90;7.05;;;0.90;99.90;;;;;;5070145;28;20204;-71
2022/02/13 00:59:39;;;;;;;10.43;6.93;;;0.90;99.90;;;;;;5067806;28;20547;-71
2022/02/13 01:02:25;;;;;;;13.70;6.97;;;0.90;99.90;;;;;;5071878;28;20211;-71
2022/02/13 01:05:11;;;;;;;10.68;7.43;;;0.80;99.90;;;;;;5070026;28;20638;-71
2022/02/13 01:07:56;;;;;;;14.85;7.55;;;0.90;99.90;;;;;;5064445;28;20220;-70
2022/02/13 01:10:44;;;;;;;9.38;7.20;;;0.90;99.90;;;;;;5070538;28;20207;-69
2022/02/13 01:13:30;;;;;;;14.82;7.05;;;0.80;99.90;;;;;;5068622;28;20227;-71
2022/02/13 01:16:16;;;;;;;9.20;6.10;;;0.70;99.90;;;;;;5071556;28;20290;-71
2022/02/13 01:19:01;;;;;;;11.43;7.25;;;0.60;99.90;;;;;;5071992;28;20278;-70
2022/02/13 01:21:47;;;;;;;11.20;6.32;;;0.70;99.90;;;;;;5065269;28;20697;-70
2022/02/13 01:24:33;;;;;;;10.70;7.22;;;0.70;99.90;;;;;;5068865;28;20227;-71
2022/02/13 01:27:20;;;;;;;12.45;6.97;;;0.70;99.90;;;;;;5072007;28;20366;-71
2022/02/13 01:30:06;;;;;;;9.88;7.40;;;0.70;99.90;;;;;;5069631;28;20208;-68
2022/02/13 01:32:52;;;;;;;15.63;7.65;;;0.70;99.90;;;;;;5071481;28;20204;-71
2022/02/13 01:35:37;;;;;;;13.15;6.97;;;0.60;99.90;;;;;;5072073;28;20725;-71
2022/02/13 01:38:23;;;;;;;9.05;7.00;;;0.60;99.90;;;;;;5072000;28;20199;-71
2022/02/13 01:41:09;;;;;;;9.38;7.05;;;0.60;99.90;;;;;;5071543;28;20207;-70
2022/02/13 01:43:58;;;;;;;10.27;7.88;;;0.40;99.90;;;;;;5067092;28;20229;-71
2022/02/13 01:46:44;;;;;;;14.68;7.40;;;0.30;99.90;;;;;;5071954;28;20228;-70
2022/02/13 01:49:30;;;;;;;11.07;8.00;;;0.30;99.90;;;;;;5070729;28;20200;-70
2022/02/13 01:52:15;;;;;;;10.32;7.47;;;0.30;99.90;;;;;;5077620;28;20853;-71
2022/02/13 01:55:02;;;;;;;12.25;7.70;;;0.20;99.90;;;;;;5067419;28;20266;-71
2022/02/13 01:57:47;;;;;;;10.02;7.78;;;0.20;99.90;;;;;;5062757;28;20204;-71
2022/02/13 02:00:34;;;;;;;8.25;7.10;;;0.20;99.90;;;;;;5067829;28;20315;-71
2022/02/13 02:03:20;;;;;;;15.93;7.13;;;0.20;99.90;;;;;;5070815;28;20615;-70
2022/02/13 02:06:05;;;;;;;17.80;8.35;;;0.30;99.90;;;;;;5070175;28;20293;-71
2022/02/13 02:08:51;;;;;;;12.82;8.20;;;0.20;99.90;;;;;;5065624;28;20220;-71
2022/02/13 02:11:37;;;;;;;11.05;7.53;;;0.20;99.90;;;;;;5065877;28;20200;-71
2022/02/13 02:14:22;;;;;;;12.20;7.70;;;0.20;99.90;;;;;;5069016;28;20223;-71
2022/02/13 02:17:09;;;;;;;13.63;8.52;;;0.20;99.90;;;;;;5071373;28;20228;-70
2022/02/13 02:19:55;;;;;;;11.73;8.02;;;0.30;99.90;;;;;;5067898;28;20294;-70
2022/02/13 02:22:48;;;;;;;11.75;7.25;;;0.30;99.90;;;;;;5066095;28;20580;-71
2022/02/13 02:25:34;;;;;;;10.95;7.95;;;0.40;99.90;;;;;;5063495;28;20659;-70
2022/02/13 02:28:20;;;;;;;10.75;7.60;;;0.30;99.90;;;;;;5068538;28;20212;-71
2022/02/13 02:31:06;;;;;;;10.40;6.30;;;0.30;99.90;;;;;;5070527;28;20204;-71
2022/02/13 02:33:52;;;;;;;9.75;7.63;;;0.30;99.90;;;;;;5069207;28;20243;-70
2022/02/13 02:36:37;;;;;;;12.93;6.93;;;0.30;99.90;;;;;;5070830;28;20323;-70
2022/02/13 02:39:23;;;;;;;10.23;7.82;;;0.40;99.90;;;;;;5067655;28;20696;-71
2022/02/13 02:42:13;;;;;;;12.23;7.53;;;0.40;99.90;;;;;;5069331;28;20208;-71
2022/02/13 02:44:59;;;;;;;9.80;7.88;;;0.40;99.90;;;;;;5070263;28;20216;-71
2022/02/13 02:47:44;;;;;;;12.15;7.95;;;0.40;99.90;;;;;;5063557;28;20235;-71
2022/02/13 02:50:30;;;;;;;11.40;7.57;;;0.40;99.90;;;;;;5062266;28;20196;-71
2022/02/13 02:53:16;;;;;;;19.02;8.55;;;0.40;99.90;;;;;;5068874;28;20796;-71
2022/02/13 02:56:03;;;;;;;10.70;7.45;;;0.40;99.90;;;;;;5066478;28;20220;-71
2022/02/13 02:58:50;;;;;;;15.38;8.68;;;0.40;99.90;;;;;;5064549;28;20195;-69
2022/02/13 03:01:36;;;;;;;15.85;8.48;;;0.40;99.90;;;;;;5066190;28;20201;-71
2022/02/13 03:04:21;;;;;;;9.93;7.78;;;0.40;99.90;;;;;;5068608;28;20225;-71
2022/02/13 03:07:06;;;;;;;15.35;8.32;;;0.30;99.90;;;;;;5065554;28;20200;-71
2022/02/13 03:09:52;;;;;;;16.20;10.68;;;0.10;99.90;;;;;;5070484;28;20256;-71
2022/02/13 03:12:38;;;;;;;16.92;10.20;;;0.10;99.90;;;;;;5060511;28;20291;-71
2022/02/13 03:15:25;;;;;;;14.05;9.20;;;0.00;99.90;;;;;;5071187;28;20227;-71
2022/02/13 03:18:11;;;;;;;14.48;9.70;;;0.10;99.90;;;;;;5070488;28;20196;-71
2022/02/13 03:20:57;;;;;;;14.32;10.35;;;0.10;99.90;;;;;;5073586;28;20282;-71
2022/02/13 03:23:42;;;;;;;13.35;9.65;;;0.10;99.90;;;;;;5068030;28;20370;-71
2022/02/13 03:26:29;;;;;;;13.80;9.00;;;0.00;99.90;;;;;;5071640;28;20204;-71
2022/02/13 03:29:14;;;;;;;12.90;9.38;;;0.00;99.90;;;;;;5065153;28;20223;-71
2022/02/13 03:32:01;;;;;;;16.33;10.70;;;0.00;99.90;;;;;;5072734;28;20242;-71
2022/02/13 03:34:47;;;;;;;14.90;10.35;;;0.00;99.90;;;;;;5069551;28;20743;-71
2022/02/13 03:37:33;;;;;;;18.58;10.45;;;0.00;99.90;;;;;;5074255;28;20274;-71
2022/02/13 03:40:19;;;;;;;16.92;9.35;;;-0.10;99.90;;;;;;5063640;28;20208;-71
2022/02/13 03:43:06;;;;;;;14.25;9.55;;;-0.10;99.90;;;;;;5070729;28;20224;-71
2022/02/13 03:45:51;;;;;;;15.75;9.20;;;-0.20;99.90;;;;;;5062576;28;20200;-71
2022/02/13 03:48:38;;;;;;;13.90;9.60;;;-0.20;99.90;;;;;;5066002;28;20313;-71
2022/02/13 03:51:24;;;;;;;14.07;9.30;;;-0.20;99.90;;;;;;5067950;28;20211;-71
2022/02/13 03:54:09;;;;;;;13.40;8.13;;;-0.10;99.90;;;;;;5096291;22;20231;-84
2022/02/13 03:56:55;;;;;;;16.80;9.38;;;-0.10;99.90;;;;;;5064942;28;20604;-85
2022/02/13 03:59:41;;;;;;;18.85;9.45;;;-0.10;99.90;;;;;;5047590;28;20197;-85
2022/02/13 04:02:26;;;;;;;14.38;8.80;;;-0.20;99.90;;;;;;5074658;28;20218;-83
2022/02/13 04:05:13;;;;;;;14.38;9.25;;;-0.30;99.90;;;;;;5061048;28;20302;-84
2022/02/13 04:07:59;;;;;;;19.15;9.77;;;-0.30;99.90;;;;;;5067645;28;20224;-83
2022/02/13 04:10:44;;;;;;;19.15;10.60;;;-0.30;99.90;;;;;;5062220;28;20212;-84
2022/02/13 04:13:30;;;;;;;16.83;10.85;;;-0.40;99.90;;;;;;5069915;28;20266;-85
2022/02/13 04:16:16;;;;;;;14.48;9.50;;;-0.50;99.90;;;;;;5071327;28;20821;-84
2022/02/13 04:19:02;;;;;;;17.42;10.90;;;-0.50;99.90;;;;;;5060751;28;20335;-84
2022/02/13 04:21:49;;;;;;;19.20;13.20;;;-0.50;99.90;;;;;;5052948;28;20203;-83
2022/02/13 04:24:35;;;;;;;21.08;11.48;;;-0.50;99.90;;;;;;5067942;28;20251;-84
2022/02/13 04:27:21;;;;;;;16.85;12.07;;;-0.40;99.90;;;;;;5058112;28;20241;-83
2022/02/13 04:30:08;;;;;;;19.48;12.15;;;-0.40;99.90;;;;;;5060195;28;20223;-83
2022/02/13 04:32:55;;;;;;;21.58;12.02;;;-0.30;99.90;;;;;;5062286;28;20192;-84
2022/02/13 04:35:42;;;;;;;17.65;12.07;;;-0.20;99.90;;;;;;5066094;28;20692;-83
2022/02/13 04:38:29;;;;;;;25.25;13.90;;;-0.20;99.90;;;;;;5060843;28;20200;-83
2022/02/13 04:41:14;;;;;;;20.30;13.07;;;-0.20;99.90;;;;;;5059324;28;20604;-84
2022/02/13 04:44:00;;;;;;;19.58;12.05;;;-0.30;99.90;;;;;;5059792;28;20212;-84
2022/02/13 04:46:45;;;;;;;17.42;11.57;;;-0.40;99.90;;;;;;5055349;28;20219;-84
2022/02/13 04:49:31;;;;;;;19.30;12.15;;;-0.30;99.90;;;;;;5057973;28;20228;-84
2022/02/13 04:52:17;;;;;;;21.88;11.77;;;-0.30;99.90;;;;;;5063875;28;20323;-84
2022/02/13 04:55:05;;;;;;;17.15;11.50;;;-0.30;99.90;;;;;;5061935;28;20591;-84
2022/02/13 04:57:51;;;;;;;16.98;11.50;;;-0.40;99.90;;;;;;5055310;28;20232;-84
2022/02/13 05:00:37;;;;;;;16.80;11.73;;;-0.40;99.90;;;;;;5059087;28;20247;-82
2022/02/13 05:03:24;;;;;;;17.83;10.65;;;-0.40;99.90;;;;;;5064608;28;20334;-83
2022/02/13 05:06:10;;;;;;;15.18;10.70;;;-0.40;99.90;;;;;;5070203;28;20236;-84
2022/02/13 05:08:56;;;;;;;16.60;11.25;;;-0.30;99.90;;;;;;5057133;28;20263;-82
2022/02/13 05:11:43;;;;;;;17.73;12.25;;;-0.50;99.90;;;;;;5052670;28;20199;-84
2022/02/13 05:14:29;;;;;;;20.70;11.30;;;-0.50;99.90;;;;;;5066817;28;20633;-84
2022/02/13 05:17:14;;;;;;;16.88;11.80;;;-0.50;99.90;;;;;;5058345;28;20655;-84
2022/02/13 05:20:00;;;;;;;19.55;10.23;;;-0.60;99.90;;;;;;5064700;28;20208;-85
2022/02/13 05:22:46;;;;;;;17.63;11.10;;;-0.50;99.90;;;;;;5063186;28;20250;-84
2022/02/13 05:25:32;;;;;;;20.20;11.90;;;-0.50;99.90;;;;;;5065234;28;20219;-83
2022/02/13 05:28:19;;;;;;;15.30;10.77;;;-0.50;99.90;;;;;;5057384;28;20307;-85
2022/02/13 05:31:04;;;;;;;21.35;11.50;;;-0.50;99.90;;;;;;5063078;28;20680;-83
2022/02/13 05:33:50;;;;;;;16.98;11.07;;;-0.50;99.90;;;;;;5061554;28;20278;-84
2022/02/13 05:36:36;;;;;;;23.90;12.70;;;-0.40;99.90;;;;;;5057157;28;20789;-83
2022/02/13 05:39:21;;;;;;;16.45;10.90;;;-0.40;99.90;;;;;;5061429;28;20284;-84
2022/02/13 05:42:07;;;;;;;15.90;12.02;;;-0.40;99.90;;;;;;5066609;28;20207;-84
2022/02/13 05:44:55;;;;;;;23.95;14.85;;;-0.30;99.90;;;;;;5066977;28;20196;-83
2022/02/13 05:47:41;;;;;;;19.98;13.38;;;-0.30;99.90;;;;;;5053449;28;20366;-83
2022/02/13 05:50:27;;;;;;;18.10;13.25;;;-0.20;99.90;;;;;;5062284;28;20232;-83
2022/02/13 05:53:13;;;;;;;21.10;13.73;;;-0.30;99.90;;;;;;5065849;28;20208;-84
2022/02/13 05:55:58;;;;;;;19.23;13.48;;;-0.20;99.90;;;;;;5056678;28;20228;-83
2022/02/13 05:58:44;;;;;;;23.52;14.77;;;-0.40;99.90;;;;;;5058948;28;20207;-83
2022/02/13 06:01:31;;;;;;;18.58;12.63;;;-0.40;99.90;;;;;;5072613;28;20215;-85
2022/02/13 06:04:17;;;;;;;22.50;13.80;;;-0.40;99.90;;;;;;5070901;28;20204;-85
2022/02/13 06:07:03;;;;;;;27.45;12.55;;;-0.40;99.90;;;;;;5061692;28;20275;-83
2022/02/13 06:09:49;;;;;;;19.75;12.55;;;-0.40;99.90;;;;;;5063836;28;20216;-85
2022/02/13 06:12:35;;;;;;;22.55;12.35;;;-0.40;99.90;;;;;;5065962;28;20613;-84
2022/02/13 06:15:21;;;;;;;15.90;11.30;;;-0.50;99.90;;;;;;5073871;28;20203;-85
2022/02/13 06:18:07;;;;;;;18.90;12.82;;;-0.40;99.90;;;;;;5061289;28;20243;-83
2022/02/13 06:20:53;;;;;;;18.30;11.73;;;-0.40;99.90;;;;;;5058949;28;20245;-85
2022/02/13 06:23:39;;;;;;;13.60;10.68;;;-0.40;99.90;;;;;;5065981;28;20222;-82
2022/02/13 06:26:25;;;;;;;17.35;11.98;;;-0.40;99.90;;;;;;5057931;28;20596;-84
2022/02/13 06:29:11;;;;;;;18.10;12.30;;;-0.50;99.90;;;;;;5061356;28;20745;-83
2022/02/13 06:31:57;;;;;;;18.02;11.68;;;-0.50;99.90;;;;;;5068474;28;20677;-84
2022/02/13 06:34:44;;;;;;;17.83;12.02;;;-0.60;99.90;;;;;;5059713;28;20196;-84
2022/02/13 06:37:31;;;;;;;18.55;12.23;;;-0.60;99.90;;;;;;5054304;28;20242;-85
2022/02/13 06:40:16;;;;;;;14.77;11.82;;;-0.60;99.90;;;;;;5053079;28;20204;-84
2022/02/13 06:43:02;;;;;;;23.58;12.98;;;-0.60;99.90;;;;;;5060257;28;20571;-84
2022/02/13 06:45:48;;;;;;;18.33;12.93;;;-0.60;99.90;;;;;;5059253;28;20216;-84
2022/02/13 06:48:35;;;;;;;17.45;12.02;;;-0.60;99.90;;;;;;5058879;28;20203;-85
2022/02/13 06:51:22;;;;;;;18.75;12.00;;;-0.50;99.90;;;;;;5069487;28;20253;-84
2022/02/13 06:54:07;;;;;;;15.90;12.23;;;-0.50;99.90;;;;;;5055564;28;20235;-82
2022/02/13 06:56:53;;;;;;;19.63;12.45;;;-0.60;99.90;;;;;;5051479;28;20997;-84
2022/02/13 06:59:40;;;;;;;16.33;11.45;;;-0.70;99.90;;;;;;5056729;28;20191;-83
2022/02/13 07:02:26;;;;;;;19.45;12.48;;;-0.70;99.90;;;;;;5063219;28;20204;-84
2022/02/13 07:05:12;;;;;;;16.30;12.13;;;-0.70;99.90;;;;;;5059325;28;20212;-82
2022/02/13 07:08:00;;;;;;;21.50;12.40;;;-0.60;99.90;;;;;;5053711;28;20211;-84
2022/02/13 07:10:46;;;;;;;18.08;13.57;;;-0.50;99.90;;;;;;5062957;28;20702;-83
2022/02/13 07:13:31;;;;;;;19.83;12.43;;;-0.50;99.90;;;;;;5065441;28;20301;-83
2022/02/13 07:16:17;;;;;;;21.23;13.55;;;-0.50;99.90;;;;;;5056168;28;20232;-83
2022/02/13 07:19:03;;;;;;;23.02;14.70;;;-0.40;99.90;;;;;;5065678;28;20204;-83
2022/02/13 07:21:49;;;;;;;21.80;14.05;;;-0.40;99.90;;;;;;5070549;28;20569;-85
2022/02/13 07:24:37;;;;;;;18.75;13.05;;;-0.30;99.90;;;;;;5054833;28;20227;-84
2022/02/13 07:27:23;;;;;;;27.05;15.30;;;-0.30;99.90;;;;;;5064948;28;20561;-85
2022/02/13 07:30:13;;;;;;;20.30;14.05;;;-0.30;99.90;;;;;;5061852;28;20275;-85
2022/02/13 07:33:01;;;;;;;19.60;12.57;;;-0.20;99.90;;;;;;5064652;28;20244;-83
2022/02/13 07:35:46;;;;;;;22.48;13.98;;;-0.20;99.90;;;;;;5057316;28;20205;-84
2022/02/13 07:38:32;;;;;;;22.13;13.05;;;-0.20;99.90;;;;;;5052635;28;20196;-85
2022/02/13 07:41:19;;;;;;;19.88;13.82;;;-0.10;99.90;;;;;;5063198;28;20208;-84
2022/02/13 07:44:06;;;;;;;18.70;14.25;;;0.00;99.90;;;;;;5066486;28;20331;-85
2022/02/13 07:46:52;;;;;;;23.40;14.82;;;0.10;99.90;;;;;;5059405;28;20231;-83
2022/02/13 07:49:38;;;;;;;20.73;14.77;;;0.10;99.90;;;;;;5064269;28;20213;-85
2022/02/13 07:52:23;;;;;;;31.35;15.63;;;0.10;99.90;;;;;;5075399;28;20203;-84
2022/02/13 07:55:12;;;;;;;21.75;16.23;;;0.20;99.90;;;;;;5064575;28;20208;-84
2022/02/13 07:57:59;;;;;;;22.08;15.73;;;0.30;99.90;;;;;;5067357;28;20225;-84
2022/02/13 08:00:45;;;;;;;21.98;15.98;;;0.40;99.90;;;;;;5063437;28;20643;-84
2022/02/13 08:03:31;;;;;;;30.48;19.90;;;0.50;99.90;;;;;;5067204;28;20203;-84
2022/02/13 08:06:18;;;;;;;25.30;16.90;;;0.60;99.90;;;;;;5057154;28;20877;-84
2022/02/13 08:09:04;;;;;;;45.35;21.25;;;0.60;99.90;;;;;;5058820;28;20302;-84
2022/02/13 08:11:50;;;;;;;43.50;25.00;;;0.80;99.90;;;;;;5059175;28;20200;-83
2022/02/13 08:14:37;;;;;;;48.33;29.35;;;0.90;99.90;;;;;;5050407;28;20201;-83
2022/02/13 08:17:23;;;;;;;43.83;24.23;;;1.00;99.90;;;;;;5059020;28;20803;-83
2022/02/13 08:20:13;;;;;;;33.80;21.05;;;1.10;99.90;;;;;;5063002;28;20219;-84
2022/02/13 08:22:59;;;;;;;28.08;18.42;;;1.10;99.90;;;;;;5054394;28;20188;-83
2022/02/13 08:25:44;;;;;;;21.85;15.20;;;1.10;99.90;;;;;;5053138;28;20197;-84
2022/02/13 08:28:31;;;;;;;19.40;14.88;;;1.30;99.90;;;;;;5065127;28;20568;-84
2022/02/13 08:31:19;;;;;;;23.45;14.30;;;1.40;99.90;;;;;;5066861;28;20597;-84
2022/02/13 08:34:05;;;;;;;17.67;13.15;;;1.80;99.90;;;;;;5063201;28;20671;-83
2022/02/13 08:36:50;;;;;;;19.63;11.60;;;2.10;99.90;;;;;;5057811;28;20264;-84
2022/02/13 08:39:36;;;;;;;26.20;15.10;;;2.50;99.90;;;;;;5062965;28;20212;-84
2022/02/13 08:42:22;;;;;;;17.15;9.48;;;2.70;99.90;;;;;;5065618;28;20201;-86
2022/02/13 08:45:08;;;;;;;18.63;11.68;;;3.20;99.90;;;;;;5054237;28;20248;-83
2022/02/13 08:47:56;;;;;;;13.93;7.38;;;3.50;99.90;;;;;;5065056;28;20216;-84
2022/02/13 08:50:41;;;;;;;14.30;8.82;;;3.90;99.90;;;;;;5056804;28;20240;-84
2022/02/13 08:53:27;;;;;;;20.27;8.68;;;4.20;99.90;;;;;;5056104;28;20224;-83
2022/02/13 08:56:12;;;;;;;14.90;6.88;;;4.50;99.90;;;;;;5062672;28;20279;-84
2022/02/13 08:58:59;;;;;;;11.98;7.70;;;4.80;99.90;;;;;;5062324;28;20740;-84
2022/02/13 09:01:45;;;;;;;13.85;7.30;;;5.00;99.90;;;;;;5058441;28;20289;-83
2022/02/13 09:04:32;;;;;;;12.63;6.80;;;5.20;99.90;;;;;;5057526;28;20205;-84
2022/02/13 09:07:18;;;;;;;17.00;7.38;;;5.50;99.90;;;;;;5059742;28;20721;-84
2022/02/13 09:10:04;;;;;;;10.57;8.18;;;5.70;99.90;;;;;;5073127;28;20273;-85
2022/02/13 09:12:50;;;;;;;7.65;5.75;;;5.80;99.90;;;;;;5066090;28;20197;-85
2022/02/13 09:15:36;;;;;;;10.53;7.17;;;6.10;99.90;;;;;;5066853;28;20221;-85
2022/02/13 09:18:21;;;;;;;16.60;6.03;;;6.30;99.90;;;;;;5073027;28;20447;-83
2022/02/13 09:21:08;;;;;;;12.10;6.67;;;6.50;99.90;;;;;;5064894;28;20447;-84
2022/02/13 09:23:55;;;;;;;11.33;6.77;;;6.70;99.90;;;;;;5060751;28;20441;-84
2022/02/13 09:26:41;;;;;;;12.97;7.00;;;6.90;99.90;;;;;;5069054;28;21015;-84
2022/02/13 09:29:27;;;;;;;18.03;6.93;;;7.00;99.90;;;;;;5071174;28;20448;-84
2022/02/13 09:32:12;;;;;;;13.90;7.40;;;7.20;99.90;;;;;;5073217;28;20508;-85
2022/02/13 09:34:58;;;;;;;12.47;6.60;;;7.40;99.90;;;;;;5049799;28;20453;-84
2022/02/13 09:37:46;;;;;;;16.53;6.63;;;7.60;99.90;;;;;;5061438;28;20827;-84
2022/02/13 09:40:34;;;;;;;10.50;6.67;;;7.70;99.90;;;;;;5068802;28;20425;-85
2022/02/13 09:43:21;;;;;;;12.40;7.53;;;8.00;99.90;;;;;;5061262;28;20438;-85
2022/02/13 09:46:08;;;;;;;17.13;7.30;;;8.10;99.90;;;;;;5070054;28;20444;-85
2022/02/13 09:48:56;;;;;;;14.23;7.00;;;8.30;99.90;;;;;;5067280;28;20452;-85
2022/02/13 09:51:42;;;;;;;14.07;7.40;;;8.40;99.90;;;;;;5075779;28;20462;-84
2022/02/13 09:54:29;;;;;;;14.50;7.03;;;8.50;99.90;;;;;;5064270;28;20469;-84
2022/02/13 10:00:18;;;;;;;13.53;7.03;;;8.90;99.90;;;;;;5074028;28;20389;-84
2022/02/13 10:03:17;;;;;;;13.10;7.60;;;9.00;99.90;;;;;;5063331;28;20454;-85
2022/02/13 10:06:21;;;;;;;19.10;7.50;;;9.10;99.90;;;;;;5058874;28;20489;-84
2022/02/13 10:09:09;;;;;;;13.77;7.47;;;9.20;99.90;;;;;;5061643;28;20408;-83
2022/02/13 10:12:02;;;;;;;11.07;8.13;;;9.40;99.90;;;;;;5060985;28;20429;-84
2022/02/13 10:14:47;;;;;;;14.00;6.30;;;9.40;98.80;;;;;;5061600;28;20845;-84
2022/02/13 10:17:33;;;;;;;16.07;6.57;;;9.60;99.10;;;;;;5067789;28;20489;-84
2022/02/13 10:20:26;;;;;;;8.30;6.00;;;9.70;95.80;;;;;;5058476;28;20446;-85
2022/02/13 10:23:13;;;;;;;11.13;7.47;;;9.90;95.60;;;;;;5059330;28;20497;-84
2022/02/13 10:25:59;;;;;;;11.30;6.30;;;10.00;94.30;;;;;;5065734;28;20527;-84
2022/02/13 10:28:55;;;;;;;15.03;7.20;;;10.10;92.80;;;;;;5062327;28;20490;-84
2022/02/13 10:31:41;;;;;;;10.57;5.80;;;10.20;91.50;;;;;;5059618;28;20454;-84
2022/02/13 10:34:26;;;;;;;10.50;7.30;;;10.30;90.50;;;;;;5057072;28;20901;-83
2022/02/13 10:37:12;;;;;;;12.83;6.87;;;10.30;90.10;;;;;;5060878;28;20522;-83
2022/02/13 10:40:04;;;;;;;12.17;7.47;;;10.40;89.60;;;;;;5067379;28;20416;-83
2022/02/13 10:43:01;;;;;;;10.23;6.40;;;10.60;90.20;;;;;;5059255;28;20614;-84
2022/02/13 10:45:47;;;;;;;14.43;7.10;;;10.80;85.40;;;;;;5062260;28;20440;-84
2022/02/13 10:48:33;;;;;;;11.90;6.57;;;10.90;81.80;;;;;;5059553;28;20397;-84
2022/02/13 10:51:21;;;;;;;16.87;7.03;;;11.10;80.40;;;;;;5060686;28;20466;-84
2022/02/13 10:54:07;;;;;;;16.63;7.90;;;11.10;76.70;;;;;;5054756;28;20449;-83
2022/02/13 10:56:52;;;;;;;11.00;6.17;;;11.10;76.70;;;;;;5059827;28;20502;-84
2022/02/13 10:59:38;;;;;;;12.23;7.03;;;11.20;74.90;;;;;;5056101;28;20764;-84
2022/02/13 11:02:26;;;;;;;11.10;5.90;;;11.20;74.80;;;;;;5059773;28;20427;-85
2022/02/13 11:05:12;;;;;;;12.90;6.80;;;11.20;74.00;;;;;;5055907;28;20463;-83
2022/02/13 11:08:05;;;;;;;13.53;7.00;;;11.20;72.10;;;;;;5063602;28;20446;-84
2022/02/13 11:10:53;;;;;;;23.43;8.63;;;11.40;74.00;;;;;;5061376;28;20458;-84
2022/02/13 11:13:39;;;;;;;11.00;6.97;;;11.60;71.00;;;;;;5055257;28;20505;-84
2022/02/13 11:16:29;;;;;;;19.93;7.20;;;11.70;71.70;;;;;;5068087;28;20549;-83
2022/02/13 11:19:17;;;;;;;13.50;7.07;;;11.80;70.00;;;;;;5045248;28;20423;-84
2022/02/13 11:22:04;;;;;;;15.60;7.37;;;12.00;67.60;;;;;;5047840;28;20801;-83
2022/02/13 11:24:53;;;;;;;15.47;6.80;;;12.00;66.20;;;;;;5054159;28;20496;-84
2022/02/13 11:27:57;;;;;;;13.60;7.37;;;11.90;63.90;;;;;;5048454;28;20554;-84
2022/02/13 11:30:45;;;;;;;15.10;6.47;;;11.70;64.60;;;;;;5054025;28;20586;-84
2022/02/13 11:33:52;;;;;;;15.40;7.10;;;11.80;65.50;;;;;;5047985;28;20820;-84
2022/02/13 11:36:50;;;;;;;10.90;6.93;;;11.90;65.00;;;;;;5055179;28;20435;-83
2022/02/13 11:39:39;;;;;;;13.40;7.47;;;12.10;65.60;;;;;;5059085;28;20501;-83
2022/02/13 11:42:37;;;;;;;13.30;6.97;;;12.10;61.60;;;;;;5056358;28;20529;-83
2022/02/13 11:45:24;;;;;;;12.43;7.10;;;12.10;61.90;;;;;;5070887;28;20469;-83
2022/02/13 11:48:40;;;;;;;21.43;8.53;;;12.20;62.70;;;;;;5048777;28;20452;-82
2022/02/13 11:51:58;;;;;;;13.33;7.40;;;12.30;62.60;;;;;;5056148;28;21216;-84
2022/02/13 11:54:57;;;;;;;15.50;6.87;;;12.40;62.90;;;;;;5058014;28;20443;-84
2022/02/13 11:57:55;;;;;;;15.13;6.33;;;12.40;61.80;;;;;;5061633;28;20461;-84
2022/02/13 12:00:47;;;;;;;9.07;6.63;;;12.20;60.10;;;;;;5051108;28;20451;-83
2022/02/13 12:03:44;;;;;;;12.50;7.33;;;12.10;61.30;;;;;;5054810;28;20488;-84
2022/02/13 12:06:31;;;;;;;11.77;7.03;;;12.10;61.00;;;;;;5047987;28;20486;-83
2022/02/13 12:09:24;;;;;;;12.77;7.70;;;12.10;60.10;;;;;;5052754;28;20950;-84
2022/02/13 12:12:10;;;;;;;9.20;6.10;;;12.20;61.60;;;;;;5048127;28;20482;-83
2022/02/13 12:14:56;;;;;;;10.33;6.30;;;12.30;60.70;;;;;;5048971;28;20447;-83
2022/02/13 12:17:42;;;;;;;12.60;6.30;;;12.50;60.10;;;;;;5050476;28;20434;-83
2022/02/13 12:20:28;;;;;;;10.17;6.27;;;12.60;60.10;;;;;;5045836;28;20455;-84
2022/02/13 12:23:15;;;;;;;13.07;7.50;;;12.50;56.00;;;;;;5049452;28;20425;-85
2022/02/13 12:26:03;;;;;;;12.30;7.27;;;12.50;57.90;;;;;;5046051;28;20474;-84
2022/02/13 12:28:49;;;;;;;14.37;7.33;;;12.60;55.40;;;;;;5051340;28;20438;-84
2022/02/13 12:31:35;;;;;;;13.37;6.50;;;12.70;55.40;;;;;;5046349;28;20429;-83
2022/02/13 12:34:21;;;;;;;14.40;7.13;;;12.80;55.00;;;;;;5047433;28;20440;-84
2022/02/13 12:37:07;;;;;;;11.40;6.57;;;12.80;54.20;;;;;;5052017;28;20837;-83
2022/02/13 12:39:52;;;;;;;9.70;6.33;;;12.90;54.90;;;;;;5050922;28;20414;-84
2022/02/13 12:42:42;;;;;;;13.00;6.87;;;13.10;54.40;;;;;;5051824;28;20440;-84
2022/02/13 12:45:29;;;;;;;11.97;7.13;;;13.40;51.90;;;;;;5051506;28;20578;-84
2022/02/13 12:48:17;;;;;;;10.30;5.40;;;13.60;50.10;;;;;;5056093;28;20502;-83
2022/02/13 12:51:03;;;;;;;18.97;5.67;;;13.80;47.50;;;;;;5053261;28;20445;-83
2022/02/13 12:53:49;;;;;;;10.53;5.53;;;13.90;48.00;;;;;;5051115;28;20594;-83
2022/02/13 12:56:35;;;;;;;9.00;5.13;;;14.00;46.10;;;;;;5051050;28;21011;-83
2022/02/13 12:59:22;;;;;;;10.43;6.10;;;14.00;46.60;;;;;;5052191;28;20498;-84
2022/02/13 13:02:20;;;;;;;10.90;6.30;;;14.00;44.90;;;;;;5045882;28;20490;-84
2022/02/13 13:05:18;;;;;;;13.10;6.00;;;14.00;46.10;;;;;;5052449;28;20424;-84
2022/02/13 13:08:12;;;;;;;10.13;5.27;;;14.00;43.50;;;;;;5056004;28;21058;-84
2022/02/13 13:10:59;;;;;;;9.70;5.53;;;14.20;44.50;;;;;;5048161;28;20839;-84
2022/02/13 13:13:45;;;;;;;7.97;4.87;;;14.50;43.70;;;;;;5057165;28;20922;-84
2022/02/13 13:16:32;;;;;;;15.57;6.27;;;14.70;44.20;;;;;;5064226;28;20445;-84
2022/02/13 13:19:29;;;;;;;13.57;6.10;;;14.80;42.20;;;;;;5063156;28;20422;-83
2022/02/13 13:22:18;;;;;;;9.40;5.60;;;15.00;41.80;;;;;;5055942;28;20414;-83
2022/02/13 13:25:04;;;;;;;12.50;5.47;;;14.90;39.40;;;;;;5061752;28;20433;-84
2022/02/13 13:28:05;;;;;;;12.50;5.40;;;14.90;40.80;;;;;;5059795;28;20971;-84
2022/02/13 13:30:51;;;;;;;7.07;4.83;;;15.10;40.30;;;;;;5063166;28;20486;-83
2022/02/13 13:33:38;;;;;;;8.03;4.40;;;15.10;38.30;;;;;;5063888;28;20427;-85
2022/02/13 13:36:28;;;;;;;10.77;5.00;;;14.80;39.10;;;;;;5076041;28;20844;-84
2022/02/13 13:39:24;;;;;;;9.70;5.50;;;14.70;38.60;;;;;;5064307;28;20425;-84
2022/02/13 13:42:14;;;;;;;13.47;6.00;;;14.80;40.00;;;;;;5051964;28;20418;-84
2022/02/13 13:45:05;;;;;;;11.73;5.57;;;14.70;38.80;;;;;;5061539;28;20397;-84
2022/02/13 13:47:52;;;;;;;10.00;5.20;;;14.80;39.30;;;;;;5059480;28;20775;-85
2022/02/13 13:50:40;;;;;;;12.17;4.93;;;14.80;39.50;;;;;;5060681;28;20456;-84
2022/02/13 13:53:27;;;;;;;7.27;3.80;;;14.80;38.20;;;;;;5063056;28;20469;-84
2022/02/13 13:56:13;;;;;;;10.83;5.20;;;14.70;39.10;;;;;;5071917;28;21102;-84
2022/02/13 13:58:59;;;;;;;8.80;4.17;;;14.70;38.10;;;;;;5063413;28;20948;-84
2022/02/13 14:01:44;;;;;;;8.60;4.40;;;14.80;38.00;;;;;;5048522;28;20515;-84
2022/02/13 14:04:30;;;;;;;15.30;6.13;;;14.90;38.80;;;;;;5065508;28;20478;-83
2022/02/13 14:07:17;;;;;;;11.93;5.53;;;14.90;38.80;;;;;;5071369;28;20446;-84
2022/02/13 14:10:03;;;;;;;9.50;5.47;;;14.90;39.40;;;;;;5057845;28;20491;-84
2022/02/13 14:12:50;;;;;;;8.67;5.70;;;15.00;40.00;;;;;;5056878;28;20471;-85
2022/02/13 14:15:36;;;;;;;7.90;5.40;;;14.90;38.70;;;;;;5060333;28;20397;-84
2022/02/13 14:18:23;;;;;;;9.37;5.90;;;14.80;39.00;;;;;;5064058;28;20419;-84
2022/02/13 14:21:14;;;;;;;9.20;5.37;;;14.60;38.50;;;;;;5061922;28;20451;-84
2022/02/13 14:24:02;;;;;;;10.83;5.10;;;14.40;39.80;;;;;;5066135;28;20781;-84